Time;durP1;ratioP1;P1;durP2;ratioP2;P2;SDS_P1;SDS_P2;PMS_P1;PMS_P2;Temp;Humidity;BMP_temperature;BMP_pressure;BME280_temperature;BME280_humidity;BME280_pressure;Samples;Min_cycle;Max_cycle;Signal;HPM_P1;HPM_P2
2024/04/15 00:02:57;;;;;;;6.10;1.55;;;9.60;1.00;;;;;;22161520;26;20004;-76
2024/04/15 00:12:58;;;;;;;4.32;1.30;;;9.60;1.00;;;;;;22195662;26;20004;-75
2024/04/15 00:22:59;;;;;;;8.48;1.65;;;9.60;1.00;;;;;;22192729;26;20044;-75
2024/04/15 00:33:00;;;;;;;6.30;1.70;;;9.60;1.00;;;;;;22158249;26;20606;-75
2024/04/15 00:43:02;;;;;;;10.30;1.63;;;9.60;1.00;;;;;;22189046;26;20004;-76
2024/04/15 00:53:05;;;;;;;6.15;1.20;;;9.60;1.00;;;;;;22184270;26;20008;-76
2024/04/15 01:03:07;;;;;;;6.97;1.60;;;9.60;1.00;;;;;;22153197;26;20394;-75
2024/04/15 01:13:08;;;;;;;7.68;1.55;;;9.60;1.00;;;;;;22145548;26;20004;-76
2024/04/15 01:23:13;;;;;;;9.95;1.70;;;9.70;1.00;;;;;;22215109;26;20530;-76
2024/04/15 01:33:15;;;;;;;5.53;1.70;;;9.70;1.00;;;;;;22172735;26;20123;-75
2024/04/15 01:43:17;;;;;;;11.05;2.28;;;9.80;1.00;;;;;;22191766;26;19992;-77
2024/04/15 01:53:18;;;;;;;10.60;2.25;;;9.80;1.00;;;;;;22184231;26;20410;-75
2024/04/15 02:03:19;;;;;;;9.98;2.45;;;9.80;1.00;;;;;;22156423;26;20138;-77
2024/04/15 02:13:20;;;;;;;10.38;2.50;;;9.80;1.00;;;;;;22186860;26;20030;-77
2024/04/15 02:23:21;;;;;;;7.80;2.25;;;9.80;1.00;;;;;;22146666;26;20000;-77
2024/04/15 02:33:22;;;;;;;7.22;2.53;;;9.80;1.00;;;;;;22222291;26;20022;-77
2024/04/15 02:43:23;;;;;;;11.05;2.40;;;9.60;1.00;;;;;;22216603;26;19997;-78
2024/04/15 02:53:24;;;;;;;14.15;2.65;;;9.60;1.00;;;;;;22176393;26;20033;-77
2024/04/15 03:03:25;;;;;;;13.32;3.70;;;9.60;1.00;;;;;;22157814;26;20068;-77
2024/04/15 03:13:26;;;;;;;10.05;2.95;;;9.50;1.00;;;;;;22190271;26;20040;-76
2024/04/15 03:23:27;;;;;;;12.25;2.83;;;9.50;1.00;;;;;;22189887;26;20492;-76
2024/04/15 03:33:28;;;;;;;7.28;2.80;;;9.50;1.00;;;;;;22199912;26;20004;-75
2024/04/15 03:43:29;;;;;;;12.27;3.15;;;9.60;1.00;;;;;;22172988;26;20367;-75
2024/04/15 03:53:31;;;;;;;12.93;3.08;;;9.60;1.00;;;;;;22167217;26;19996;-75
2024/04/15 04:03:32;;;;;;;10.23;3.10;;;9.60;5.70;;;;;;22163578;26;19996;-75
2024/04/15 04:13:36;;;;;;;13.00;3.78;;;9.70;10.30;;;;;;22172160;26;20055;-75
2024/04/15 04:23:38;;;;;;;13.90;3.58;;;9.70;15.60;;;;;;22190863;26;20006;-77
2024/04/15 04:33:39;;;;;;;11.82;3.55;;;9.60;16.60;;;;;;22192241;26;20448;-78
2024/04/15 04:43:40;;;;;;;16.58;3.70;;;9.60;12.60;;;;;;22166150;26;20746;-77
2024/04/15 04:53:41;;;;;;;15.18;4.30;;;9.70;14.90;;;;;;22191684;26;20008;-77
2024/04/15 05:03:51;;;;;;;11.85;4.35;;;9.80;25.10;;;;;;22154470;26;19992;-77
2024/04/15 05:13:52;;;;;;;15.82;4.03;;;9.80;28.40;;;;;;22163447;26;20000;-77
2024/04/15 05:23:53;;;;;;;12.57;4.25;;;9.60;33.50;;;;;;22172045;26;20063;-78
2024/04/15 05:33:55;;;;;;;21.73;4.95;;;9.60;41.80;;;;;;22192561;26;20565;-78
2024/04/15 05:43:57;;;;;;;11.77;3.70;;;9.50;44.30;;;;;;22184598;26;20003;-81
2024/04/15 05:53:57;;;;;;;12.05;4.22;;;9.60;51.40;;;;;;22210181;26;20060;-78
2024/04/15 06:03:58;;;;;;;12.75;2.88;;;9.70;32.60;;;;;;22189354;26;19996;-78
2024/04/15 06:14:02;;;;;;;10.40;1.92;;;9.90;14.70;;;;;;22193949;26;20022;-78
2024/04/15 06:24:03;;;;;;;7.40;2.60;;;10.10;1.00;;;;;;22190553;26;20471;-78
2024/04/15 06:34:04;;;;;;;9.50;1.92;;;10.20;1.00;;;;;;22192932;26;20011;-78
2024/04/15 06:44:05;;;;;;;9.00;1.77;;;10.50;1.00;;;;;;22207755;26;20068;-75
2024/04/15 06:54:07;;;;;;;7.38;1.65;;;10.70;1.00;;;;;;22204894;26;20004;-75
2024/04/15 07:04:08;;;;;;;9.10;1.80;;;10.80;1.00;;;;;;22179420;26;20083;-74
2024/04/15 07:14:08;;;;;;;6.32;1.45;;;10.90;1.00;;;;;;22205779;26;20011;-76
2024/04/15 07:24:10;;;;;;;6.28;1.95;;;10.80;1.00;;;;;;22193767;26;20000;-78
2024/04/15 07:34:10;;;;;;;13.82;2.08;;;10.70;1.00;;;;;;22177799;26;20531;-78
2024/04/15 07:44:11;;;;;;;10.80;3.25;;;10.80;1.00;;;;;;22174343;26;20342;-79
2024/04/15 07:54:12;;;;;;;12.05;2.88;;;10.80;1.00;;;;;;22192767;26;20076;-80
2024/04/15 08:04:13;;;;;;;11.13;3.75;;;10.80;1.00;;;;;;22204986;26;20542;-78
2024/04/15 08:14:14;;;;;;;9.68;3.15;;;10.80;1.00;;;;;;22210591;26;20011;-78
2024/04/15 08:24:15;;;;;;;10.82;2.85;;;11.00;1.00;;;;;;22188375;26;20015;-78
2024/04/15 08:34:16;;;;;;;10.23;3.17;;;11.00;1.00;;;;;;22197651;26;20015;-78
2024/04/15 08:44:23;;;;;;;8.38;2.83;;;11.10;1.00;;;;;;22189112;26;20015;-78
2024/04/15 08:54:24;;;;;;;11.20;3.10;;;11.20;1.00;;;;;;22215282;26;20901;-78
2024/04/15 09:04:25;;;;;;;7.35;1.90;;;11.10;1.00;;;;;;22188906;26;20005;-80
2024/04/15 09:14:26;;;;;;;7.97;2.30;;;11.10;1.00;;;;;;22172154;26;20744;-78
2024/04/15 09:24:28;;;;;;;9.95;2.50;;;11.30;1.00;;;;;;22211758;26;20463;-81
2024/04/15 09:34:29;;;;;;;10.55;2.25;;;11.50;1.00;;;;;;22197496;26;20000;-81
2024/04/15 09:44:30;;;;;;;8.73;1.98;;;11.50;1.00;;;;;;22192179;26;20019;-82
2024/04/15 09:54:33;;;;;;;6.90;1.60;;;11.60;1.00;;;;;;22221041;26;21045;-81
2024/04/15 10:04:36;;;;;;;7.72;1.60;;;11.40;1.00;;;;;;22207888;26;20385;-81
2024/04/15 10:14:37;;;;;;;5.93;2.55;;;11.00;1.00;;;;;;22169408;26;20007;-79
2024/04/15 10:24:39;;;;;;;8.73;2.65;;;10.70;1.00;;;;;;22168522;26;20477;-79
2024/04/15 10:34:42;;;;;;;7.97;3.60;;;10.90;1.00;;;;;;22191273;26;19996;-81
2024/04/15 10:44:43;;;;;;;9.85;3.80;;;11.20;1.00;;;;;;22180175;26;20056;-79
2024/04/15 10:54:44;;;;;;;9.88;3.42;;;10.70;1.00;;;;;;22205651;26;20016;-78
2024/04/15 11:04:47;;;;;;;11.57;4.75;;;10.20;7.80;;;;;;22203784;26;20430;-78
2024/04/15 11:14:54;;;;;;;9.55;5.15;;;9.60;80.90;;;;;;22212157;26;20000;-78
2024/04/15 11:24:55;;;;;;;8.10;4.35;;;9.60;99.90;;;;;;22196189;26;20000;-79
2024/04/15 11:34:56;;;;;;;9.10;4.35;;;9.90;99.90;;;;;;22216161;26;20011;-79
2024/04/15 11:44:59;;;;;;;13.20;3.70;;;9.80;99.90;;;;;;22204751;26;20008;-78
2024/04/15 11:55:00;;;;;;;9.73;2.72;;;10.00;99.90;;;;;;22221474;26;19992;-78
2024/04/15 12:05:01;;;;;;;8.57;3.20;;;9.90;99.90;;;;;;22223010;26;19996;-80
2024/04/15 12:15:02;;;;;;;8.30;3.05;;;9.90;99.90;;;;;;22214773;26;20055;-79
2024/04/15 12:25:03;;;;;;;7.38;3.30;;;10.00;99.90;;;;;;22217976;26;20254;-79
2024/04/15 12:35:06;;;;;;;4.00;1.20;;;9.90;99.90;;;;;;22213513;26;19996;-77
2024/04/15 12:45:07;;;;;;;3.22;1.35;;;8.10;15.80;;;;;;22206530;26;20077;-77
2024/04/15 12:55:08;;;;;;;5.32;0.80;;;6.70;49.40;;;;;;22203493;26;19997;-76
2024/04/15 13:05:09;;;;;;;2.03;0.38;;;6.50;99.90;;;;;;22206466;26;20008;-76
2024/04/15 13:15:10;;;;;;;2.72;0.40;;;6.50;99.90;;;;;;22186602;26;20123;-76
2024/04/15 13:25:11;;;;;;;5.03;0.57;;;6.20;99.90;;;;;;22200425;26;20011;-76
2024/04/15 13:35:12;;;;;;;5.10;0.47;;;6.30;99.90;;;;;;22191601;26;20000;-76
2024/04/15 13:45:14;;;;;;;3.90;0.50;;;6.30;99.90;;;;;;22186957;26;20443;-77
2024/04/15 13:55:15;;;;;;;2.40;0.73;;;6.60;99.90;;;;;;22189396;26;20463;-77
2024/04/15 14:05:16;;;;;;;5.65;1.30;;;6.70;99.90;;;;;;22177926;26;20633;-77
2024/04/15 14:15:17;;;;;;;6.18;2.63;;;6.90;99.90;;;;;;22183131;26;20004;-76
2024/04/15 14:25:18;;;;;;;8.57;0.77;;;6.90;99.90;;;;;;22180706;26;20018;-77
2024/04/15 14:35:19;;;;;;;4.78;0.80;;;8.00;99.90;;;;;;22172311;26;20471;-76
2024/04/15 14:45:20;;;;;;;10.07;1.17;;;9.00;99.90;;;;;;22188665;26;21004;-77
2024/04/15 14:55:21;;;;;;;9.10;1.38;;;8.80;87.80;;;;;;22206366;26;20178;-79
2024/04/15 15:05:22;;;;;;;8.20;1.38;;;9.10;99.90;;;;;;22207422;26;20018;-79
2024/04/15 15:15:23;;;;;;;6.60;0.90;;;9.60;16.60;;;;;;22261778;26;20008;-77
2024/04/15 15:25:24;;;;;;;5.25;0.95;;;9.30;6.70;;;;;;22248306;26;19993;-78
2024/04/15 15:35:25;;;;;;;4.45;1.08;;;9.00;4.20;;;;;;22214669;26;20080;-78
2024/04/15 15:45:26;;;;;;;5.28;0.90;;;9.20;1.00;;;;;;22225450;26;20454;-77
2024/04/15 15:55:30;;;;;;;4.88;0.95;;;9.00;1.00;;;;;;22221064;26;20440;-78
2024/04/15 16:05:31;;;;;;;6.25;0.60;;;8.10;1.00;;;;;;22222306;26;19996;-75
2024/04/15 16:15:33;;;;;;;4.82;0.65;;;8.40;1.00;;;;;;22217229;26;20102;-76
2024/04/15 16:25:34;;;;;;;11.30;4.43;;;8.60;1.00;;;;;;22150519;26;20000;-75
2024/04/15 16:35:35;;;;;;;3.35;0.40;;;8.40;1.00;;;;;;22209118;26;19992;-78
2024/04/15 16:45:36;;;;;;;3.28;0.60;;;8.50;1.00;;;;;;22217889;26;20004;-75
2024/04/15 16:55:37;;;;;;;3.22;0.60;;;8.40;1.00;;;;;;22223839;26;20863;-77
2024/04/15 17:05:38;;;;;;;4.40;0.80;;;8.10;1.00;;;;;;22196048;26;20554;-76
2024/04/15 17:15:41;;;;;;;6.68;0.80;;;8.00;1.00;;;;;;22216890;26;19993;-78
2024/04/15 17:25:42;;;;;;;8.93;1.10;;;7.90;1.00;;;;;;22221144;26;20642;-78
2024/04/15 17:35:43;;;;;;;8.57;1.08;;;8.00;1.00;;;;;;22206969;26;19992;-78
2024/04/15 17:45:45;;;;;;;8.48;1.08;;;8.10;1.00;;;;;;22210873;26;20028;-78
2024/04/15 17:55:46;;;;;;;3.83;0.45;;;8.20;1.00;;;;;;22198916;26;19996;-78
2024/04/15 18:05:47;;;;;;;1.70;0.30;;;8.20;1.00;;;;;;22178942;26;20015;-78
2024/04/15 18:15:49;;;;;;;1.15;0.20;;;7.60;1.00;;;;;;22197894;26;20469;-78
2024/04/15 18:25:50;;;;;;;5.00;1.30;;;7.30;1.00;;;;;;22222384;26;20080;-76
2024/04/15 18:35:53;;;;;;;3.05;0.43;;;7.00;1.00;;;;;;22208016;26;20449;-77
2024/04/15 18:45:57;;;;;;;3.35;0.90;;;7.00;1.00;;;;;;22211684;26;20052;-75
2024/04/15 18:55:58;;;;;;;1.90;0.55;;;6.80;5.20;;;;;;22196538;26;20008;-75
2024/04/15 19:06:00;;;;;;;2.58;0.50;;;6.40;44.20;;;;;;22188241;26;20081;-75
2024/04/15 19:16:02;;;;;;;2.45;0.50;;;6.20;91.10;;;;;;22168284;26;19997;-77
2024/04/15 19:26:03;;;;;;;2.10;0.60;;;6.20;99.90;;;;;;22204088;26;19996;-75
2024/04/15 19:36:04;;;;;;;4.30;0.75;;;6.20;99.90;;;;;;22214690;26;20324;-79
2024/04/15 19:46:07;;;;;;;2.45;0.35;;;6.20;99.90;;;;;;22217569;26;20090;-78
2024/04/15 19:56:08;;;;;;;4.97;0.38;;;6.20;99.90;;;;;;22211504;26;20012;-78
2024/04/15 20:06:10;;;;;;;6.70;0.63;;;6.10;99.90;;;;;;22191890;26;20070;-77
2024/04/15 20:16:11;;;;;;;4.05;0.45;;;6.00;99.90;;;;;;22195727;26;20077;-79
2024/04/15 20:26:12;;;;;;;3.75;0.30;;;5.70;99.90;;;;;;22197461;26;20072;-78
2024/04/15 20:36:13;;;;;;;5.82;0.85;;;5.70;99.90;;;;;;22219263;26;20039;-79
2024/04/15 20:46:14;;;;;;;10.18;1.35;;;5.70;99.90;;;;;;22196062;26;20043;-79
2024/04/15 20:56:15;;;;;;;13.48;1.60;;;5.80;99.90;;;;;;22213029;26;20048;-79
2024/04/15 21:06:16;;;;;;;8.90;1.58;;;6.00;99.90;;;;;;22186884;26;20003;-78
2024/04/15 21:16:17;;;;;;;7.10;1.40;;;6.20;99.90;;;;;;22166738;26;19992;-78
2024/04/15 21:26:18;;;;;;;8.10;2.08;;;6.30;99.90;;;;;;22209769;26;20054;-78
2024/04/15 21:36:19;;;;;;;14.45;3.22;;;6.20;99.90;;;;;;22201308;26;19996;-79
2024/04/15 21:46:20;;;;;;;11.40;1.95;;;6.30;99.90;;;;;;22167958;26;20021;-78
2024/04/15 21:56:21;;;;;;;12.57;2.35;;;6.50;99.90;;;;;;22189888;26;20051;-77
2024/04/15 22:06:22;;;;;;;11.80;2.05;;;6.50;99.90;;;;;;22176724;26;19996;-76
2024/04/15 22:16:24;;;;;;;13.88;3.35;;;6.60;99.90;;;;;;22182728;26;20646;-75
2024/04/15 22:26:25;;;;;;;8.65;1.98;;;6.60;87.30;;;;;;22190932;26;19996;-76
2024/04/15 22:36:26;;;;;;;14.68;3.15;;;6.90;27.80;;;;;;22214988;26;20073;-75
2024/04/15 22:46:27;;;;;;;8.93;2.15;;;6.80;23.00;;;;;;22158583;26;20032;-75
2024/04/15 22:56:28;;;;;;;9.45;1.70;;;6.90;13.60;;;;;;22193030;26;20011;-76
2024/04/15 23:06:29;;;;;;;10.80;2.10;;;7.00;4.30;;;;;;22161936;26;20565;-78
2024/04/15 23:16:31;;;;;;;9.73;1.90;;;7.10;1.00;;;;;;22195824;26;20331;-78
2024/04/15 23:26:32;;;;;;;10.75;1.60;;;7.20;1.00;;;;;;22184461;26;20019;-79
2024/04/15 23:36:33;;;;;;;11.15;1.70;;;7.40;1.00;;;;;;22200376;26;20026;-79
2024/04/15 23:46:34;;;;;;;9.27;1.48;;;7.60;1.00;;;;;;22172330;26;20725;-79
2024/04/15 23:56:35;;;;;;;7.60;1.33;;;7.90;1.00;;;;;;22159952;26;20553;-78
